sensor_id;sensor_type;location;lat;lon;timestamp;temperature;humidity
30379;DHT22;17168;49.164;9.060;2024-03-07T00:00:41;9.30;86.00
30379;DHT22;17168;49.164;9.060;2024-03-07T00:03:15;9.30;86.20
30379;DHT22;17168;49.164;9.060;2024-03-07T00:05:50;9.20;86.30
30379;DHT22;17168;49.164;9.060;2024-03-07T00:08:23;9.20;86.50
30379;DHT22;17168;49.164;9.060;2024-03-07T00:10:58;9.20;86.60
30379;DHT22;17168;49.164;9.060;2024-03-07T00:13:30;9.20;86.80
30379;DHT22;17168;49.164;9.060;2024-03-07T00:16:02;9.20;87.00
30379;DHT22;17168;49.164;9.060;2024-03-07T00:18:35;9.20;87.10
30379;DHT22;17168;49.164;9.060;2024-03-07T00:21:07;9.20;87.30
30379;DHT22;17168;49.164;9.060;2024-03-07T00:23:40;9.20;87.30
30379;DHT22;17168;49.164;9.060;2024-03-07T00:26:15;9.30;87.30
30379;DHT22;17168;49.164;9.060;2024-03-07T00:28:47;9.30;87.30
30379;DHT22;17168;49.164;9.060;2024-03-07T00:31:20;9.20;87.00
30379;DHT22;17168;49.164;9.060;2024-03-07T00:33:52;8.90;87.20
30379;DHT22;17168;49.164;9.060;2024-03-07T00:36:41;8.50;87.90
30379;DHT22;17168;49.164;9.060;2024-03-07T00:39:13;8.00;89.10
30379;DHT22;17168;49.164;9.060;2024-03-07T00:41:48;7.60;90.10
30379;DHT22;17168;49.164;9.060;2024-03-07T00:44:20;7.20;90.80
30379;DHT22;17168;49.164;9.060;2024-03-07T00:46:53;6.90;91.50
30379;DHT22;17168;49.164;9.060;2024-03-07T00:49:25;6.50;92.30
30379;DHT22;17168;49.164;9.060;2024-03-07T00:51:58;6.20;93.10
30379;DHT22;17168;49.164;9.060;2024-03-07T00:54:30;6.00;94.10
30379;DHT22;17168;49.164;9.060;2024-03-07T00:57:05;5.80;96.00
30379;DHT22;17168;49.164;9.060;2024-03-07T00:59:37;5.50;96.70
30379;DHT22;17168;49.164;9.060;2024-03-07T01:02:10;5.50;99.40
30379;DHT22;17168;49.164;9.060;2024-03-07T01:04:42;5.30;99.90
30379;DHT22;17168;49.164;9.060;2024-03-07T01:07:14;5.10;99.90
30379;DHT22;17168;49.164;9.060;2024-03-07T01:09:47;5.10;99.90
30379;DHT22;17168;49.164;9.060;2024-03-07T01:12:22;4.90;99.90
30379;DHT22;17168;49.164;9.060;2024-03-07T01:14:56;4.90;99.90
30379;DHT22;17168;49.164;9.060;2024-03-07T01:17:29;4.80;99.90
30379;DHT22;17168;49.164;9.060;2024-03-07T01:20:02;4.70;99.90
30379;DHT22;17168;49.164;9.060;2024-03-07T01:22:34;4.40;99.90
30379;DHT22;17168;49.164;9.060;2024-03-07T01:25:07;4.50;99.90
30379;DHT22;17168;49.164;9.060;2024-03-07T01:27:41;4.40;99.90
30379;DHT22;17168;49.164;9.060;2024-03-07T01:30:14;4.40;99.90
30379;DHT22;17168;49.164;9.060;2024-03-07T01:32:47;4.30;99.90
30379;DHT22;17168;49.164;9.060;2024-03-07T01:35:19;4.30;99.90
30379;DHT22;17168;49.164;9.060;2024-03-07T01:37:51;4.20;99.90
30379;DHT22;17168;49.164;9.060;2024-03-07T01:40:24;4.20;99.90
30379;DHT22;17168;49.164;9.060;2024-03-07T01:42:58;4.10;99.90
30379;DHT22;17168;49.164;9.060;2024-03-07T01:45:32;4.10;99.90
30379;DHT22;17168;49.164;9.060;2024-03-07T01:48:06;4.00;99.90
30379;DHT22;17168;49.164;9.060;2024-03-07T01:50:39;4.00;99.90
30379;DHT22;17168;49.164;9.060;2024-03-07T01:53:12;3.90;99.90
30379;DHT22;17168;49.164;9.060;2024-03-07T01:55:46;3.90;99.90
30379;DHT22;17168;49.164;9.060;2024-03-07T01:58:21;3.90;99.90
30379;DHT22;17168;49.164;9.060;2024-03-07T02:00:54;3.60;99.90
30379;DHT22;17168;49.164;9.060;2024-03-07T02:03:26;3.60;99.90
30379;DHT22;17168;49.164;9.060;2024-03-07T02:05:59;3.50;99.90
30379;DHT22;17168;49.164;9.060;2024-03-07T02:08:31;3.50;99.90
30379;DHT22;17168;49.164;9.060;2024-03-07T02:11:04;3.40;99.90
30379;DHT22;17168;49.164;9.060;2024-03-07T02:13:39;3.40;99.90
30379;DHT22;17168;49.164;9.060;2024-03-07T02:16:12;3.40;99.90
30379;DHT22;17168;49.164;9.060;2024-03-07T02:18:44;3.20;99.90
30379;DHT22;17168;49.164;9.060;2024-03-07T02:21:19;3.20;99.90
30379;DHT22;17168;49.164;9.060;2024-03-07T02:23:51;3.10;99.90
30379;DHT22;17168;49.164;9.060;2024-03-07T02:26:25;3.10;99.90
30379;DHT22;17168;49.164;9.060;2024-03-07T02:28:57;3.00;99.90
30379;DHT22;17168;49.164;9.060;2024-03-07T02:31:29;3.00;99.90
30379;DHT22;17168;49.164;9.060;2024-03-07T02:34:09;2.90;99.90
30379;DHT22;17168;49.164;9.060;2024-03-07T02:36:44;2.80;99.90
30379;DHT22;17168;49.164;9.060;2024-03-07T02:39:16;2.80;99.90
30379;DHT22;17168;49.164;9.060;2024-03-07T02:41:48;2.80;99.90
30379;DHT22;17168;49.164;9.060;2024-03-07T02:44:21;2.70;99.90
30379;DHT22;17168;49.164;9.060;2024-03-07T02:46:54;2.70;99.90
30379;DHT22;17168;49.164;9.060;2024-03-07T02:49:26;2.70;99.90
30379;DHT22;17168;49.164;9.060;2024-03-07T02:52:01;2.60;99.90
30379;DHT22;17168;49.164;9.060;2024-03-07T02:54:33;2.60;99.90
30379;DHT22;17168;49.164;9.060;2024-03-07T02:57:05;2.60;99.90
30379;DHT22;17168;49.164;9.060;2024-03-07T02:59:38;2.50;99.90
30379;DHT22;17168;49.164;9.060;2024-03-07T03:02:10;2.50;99.90
30379;DHT22;17168;49.164;9.060;2024-03-07T03:04:42;2.50;99.90
30379;DHT22;17168;49.164;9.060;2024-03-07T03:07:17;2.40;99.90
30379;DHT22;17168;49.164;9.060;2024-03-07T03:09:49;2.50;99.90
30379;DHT22;17168;49.164;9.060;2024-03-07T03:12:21;2.40;99.90
30379;DHT22;17168;49.164;9.060;2024-03-07T03:14:54;2.40;99.90
30379;DHT22;17168;49.164;9.060;2024-03-07T03:17:26;2.40;99.90
30379;DHT22;17168;49.164;9.060;2024-03-07T03:19:59;2.40;99.90
30379;DHT22;17168;49.164;9.060;2024-03-07T03:22:34;2.30;99.90
30379;DHT22;17168;49.164;9.060;2024-03-07T03:25:06;2.30;99.90
30379;DHT22;17168;49.164;9.060;2024-03-07T03:27:39;2.30;99.90
30379;DHT22;17168;49.164;9.060;2024-03-07T03:30:12;2.20;99.90
30379;DHT22;17168;49.164;9.060;2024-03-07T03:32:46;2.20;99.90
30379;DHT22;17168;49.164;9.060;2024-03-07T03:35:19;2.20;99.90
30379;DHT22;17168;49.164;9.060;2024-03-07T03:37:54;2.10;99.90
30379;DHT22;17168;49.164;9.060;2024-03-07T03:40:26;2.10;99.90
30379;DHT22;17168;49.164;9.060;2024-03-07T03:42:59;2.10;99.90
30379;DHT22;17168;49.164;9.060;2024-03-07T03:45:31;2.00;99.90
30379;DHT22;17168;49.164;9.060;2024-03-07T03:48:06;2.00;99.90
30379;DHT22;17168;49.164;9.060;2024-03-07T03:50:39;1.90;99.90
30379;DHT22;17168;49.164;9.060;2024-03-07T03:53:14;1.90;99.90
30379;DHT22;17168;49.164;9.060;2024-03-07T03:55:46;1.80;99.90
30379;DHT22;17168;49.164;9.060;2024-03-07T03:58:18;1.80;99.90
30379;DHT22;17168;49.164;9.060;2024-03-07T04:00:50;1.80;99.90
30379;DHT22;17168;49.164;9.060;2024-03-07T04:03:23;1.80;99.90
30379;DHT22;17168;49.164;9.060;2024-03-07T04:05:55;1.70;99.90
30379;DHT22;17168;49.164;9.060;2024-03-07T04:08:30;1.70;99.90
30379;DHT22;17168;49.164;9.060;2024-03-07T04:11:03;1.70;99.90
30379;DHT22;17168;49.164;9.060;2024-03-07T04:13:35;1.60;99.90
30379;DHT22;17168;49.164;9.060;2024-03-07T04:16:07;1.60;99.90
30379;DHT22;17168;49.164;9.060;2024-03-07T04:18:40;1.60;99.90
30379;DHT22;17168;49.164;9.060;2024-03-07T04:21:12;1.50;99.90
30379;DHT22;17168;49.164;9.060;2024-03-07T04:23:47;1.40;99.90
30379;DHT22;17168;49.164;9.060;2024-03-07T04:26:20;1.40;99.90
30379;DHT22;17168;49.164;9.060;2024-03-07T04:28:52;1.40;99.90
30379;DHT22;17168;49.164;9.060;2024-03-07T04:31:24;1.40;99.90
30379;DHT22;17168;49.164;9.060;2024-03-07T04:33:56;1.40;99.90
30379;DHT22;17168;49.164;9.060;2024-03-07T04:36:28;1.30;99.90
30379;DHT22;17168;49.164;9.060;2024-03-07T04:39:05;1.30;99.90
30379;DHT22;17168;49.164;9.060;2024-03-07T04:41:42;1.30;99.90
30379;DHT22;17168;49.164;9.060;2024-03-07T04:44:14;1.30;99.90
30379;DHT22;17168;49.164;9.060;2024-03-07T04:46:46;1.30;99.90
30379;DHT22;17168;49.164;9.060;2024-03-07T04:49:19;1.30;99.90
30379;DHT22;17168;49.164;9.060;2024-03-07T04:51:51;1.20;99.90
30379;DHT22;17168;49.164;9.060;2024-03-07T04:54:29;1.20;99.90
30379;DHT22;17168;49.164;9.060;2024-03-07T04:57:02;1.20;99.90
30379;DHT22;17168;49.164;9.060;2024-03-07T04:59:34;1.20;99.90
30379;DHT22;17168;49.164;9.060;2024-03-07T05:02:06;1.10;99.90
30379;DHT22;17168;49.164;9.060;2024-03-07T05:04:39;1.10;99.90
30379;DHT22;17168;49.164;9.060;2024-03-07T05:07:11;1.10;99.90
30379;DHT22;17168;49.164;9.060;2024-03-07T05:09:46;1.10;99.90
30379;DHT22;17168;49.164;9.060;2024-03-07T05:12:18;1.00;99.90
30379;DHT22;17168;49.164;9.060;2024-03-07T05:14:50;1.00;99.90
30379;DHT22;17168;49.164;9.060;2024-03-07T05:17:23;1.00;99.90
30379;DHT22;17168;49.164;9.060;2024-03-07T05:19:55;1.00;99.90
30379;DHT22;17168;49.164;9.060;2024-03-07T05:22:27;1.00;99.90
30379;DHT22;17168;49.164;9.060;2024-03-07T05:25:05;0.90;99.90
30379;DHT22;17168;49.164;9.060;2024-03-07T05:27:38;0.90;99.90
30379;DHT22;17168;49.164;9.060;2024-03-07T05:30:11;0.90;99.90
30379;DHT22;17168;49.164;9.060;2024-03-07T05:32:45;0.90;99.90
30379;DHT22;17168;49.164;9.060;2024-03-07T05:35:17;0.80;99.90
30379;DHT22;17168;49.164;9.060;2024-03-07T05:37:53;0.80;99.90
30379;DHT22;17168;49.164;9.060;2024-03-07T05:40:31;0.80;99.90
30379;DHT22;17168;49.164;9.060;2024-03-07T05:43:05;0.70;99.90
30379;DHT22;17168;49.164;9.060;2024-03-07T05:45:37;0.70;99.90
30379;DHT22;17168;49.164;9.060;2024-03-07T05:48:13;0.70;99.90
30379;DHT22;17168;49.164;9.060;2024-03-07T05:50:46;0.70;99.90
30379;DHT22;17168;49.164;9.060;2024-03-07T05:53:18;0.70;99.90
30379;DHT22;17168;49.164;9.060;2024-03-07T05:55:53;0.60;99.90
30379;DHT22;17168;49.164;9.060;2024-03-07T05:58:26;0.60;99.90
30379;DHT22;17168;49.164;9.060;2024-03-07T06:00:59;0.60;99.90
30379;DHT22;17168;49.164;9.060;2024-03-07T06:03:31;0.60;99.90
30379;DHT22;17168;49.164;9.060;2024-03-07T06:06:04;0.60;99.90
30379;DHT22;17168;49.164;9.060;2024-03-07T06:08:38;0.60;99.90
30379;DHT22;17168;49.164;9.060;2024-03-07T06:11:17;0.60;99.90
30379;DHT22;17168;49.164;9.060;2024-03-07T06:13:53;0.60;99.90
30379;DHT22;17168;49.164;9.060;2024-03-07T06:16:25;0.70;99.90
30379;DHT22;17168;49.164;9.060;2024-03-07T06:18:57;0.70;99.90
30379;DHT22;17168;49.164;9.060;2024-03-07T06:21:29;0.70;99.90
30379;DHT22;17168;49.164;9.060;2024-03-07T06:24:05;0.70;99.90
30379;DHT22;17168;49.164;9.060;2024-03-07T06:26:42;0.70;99.90
30379;DHT22;17168;49.164;9.060;2024-03-07T06:29:18;0.70;99.90
30379;DHT22;17168;49.164;9.060;2024-03-07T06:31:50;0.70;99.90
30379;DHT22;17168;49.164;9.060;2024-03-07T06:34:25;0.70;99.90
30379;DHT22;17168;49.164;9.060;2024-03-07T06:36:59;0.70;99.90
30379;DHT22;17168;49.164;9.060;2024-03-07T06:39:31;0.70;99.90
30379;DHT22;17168;49.164;9.060;2024-03-07T06:42:06;0.70;99.90
30379;DHT22;17168;49.164;9.060;2024-03-07T06:44:38;0.80;99.90
30379;DHT22;17168;49.164;9.060;2024-03-07T06:47:10;0.80;99.90
30379;DHT22;17168;49.164;9.060;2024-03-07T06:49:42;0.80;99.90
30379;DHT22;17168;49.164;9.060;2024-03-07T06:52:14;0.90;99.90
30379;DHT22;17168;49.164;9.060;2024-03-07T06:54:47;0.90;99.90
30379;DHT22;17168;49.164;9.060;2024-03-07T06:57:22;0.90;99.90
30379;DHT22;17168;49.164;9.060;2024-03-07T06:59:54;0.90;99.90
30379;DHT22;17168;49.164;9.060;2024-03-07T07:02:27;1.00;99.90
30379;DHT22;17168;49.164;9.060;2024-03-07T07:04:59;1.00;99.90
30379;DHT22;17168;49.164;9.060;2024-03-07T07:07:32;1.10;99.90
30379;DHT22;17168;49.164;9.060;2024-03-07T07:10:05;1.10;99.90
30379;DHT22;17168;49.164;9.060;2024-03-07T07:12:44;1.10;99.90
30379;DHT22;17168;49.164;9.060;2024-03-07T07:15:17;1.20;99.90
30379;DHT22;17168;49.164;9.060;2024-03-07T07:17:50;1.20;99.90
30379;DHT22;17168;49.164;9.060;2024-03-07T07:20:23;1.30;99.90
30379;DHT22;17168;49.164;9.060;2024-03-07T07:22:56;1.30;99.90
30379;DHT22;17168;49.164;9.060;2024-03-07T07:25:30;1.30;99.90
30379;DHT22;17168;49.164;9.060;2024-03-07T07:28:05;1.40;99.90
30379;DHT22;17168;49.164;9.060;2024-03-07T07:30:40;1.50;99.90
30379;DHT22;17168;49.164;9.060;2024-03-07T07:33:16;1.60;99.90
30379;DHT22;17168;49.164;9.060;2024-03-07T07:35:48;1.70;99.90
30379;DHT22;17168;49.164;9.060;2024-03-07T07:38:20;1.80;99.90
30379;DHT22;17168;49.164;9.060;2024-03-07T07:40:53;1.90;99.90
30379;DHT22;17168;49.164;9.060;2024-03-07T07:43:27;2.10;99.90
30379;DHT22;17168;49.164;9.060;2024-03-07T07:46:16;2.10;99.90
30379;DHT22;17168;49.164;9.060;2024-03-07T07:48:48;2.30;99.90
30379;DHT22;17168;49.164;9.060;2024-03-07T07:51:20;2.40;99.90
30379;DHT22;17168;49.164;9.060;2024-03-07T07:53:53;2.50;99.90
30379;DHT22;17168;49.164;9.060;2024-03-07T07:56:26;2.60;99.90
30379;DHT22;17168;49.164;9.060;2024-03-07T07:59:03;2.70;99.90
30379;DHT22;17168;49.164;9.060;2024-03-07T08:01:36;2.90;99.90
30379;DHT22;17168;49.164;9.060;2024-03-07T08:04:08;3.00;99.90
30379;DHT22;17168;49.164;9.060;2024-03-07T08:06:41;3.10;99.90
30379;DHT22;17168;49.164;9.060;2024-03-07T08:09:15;3.20;99.90
30379;DHT22;17168;49.164;9.060;2024-03-07T08:11:48;3.40;99.90
30379;DHT22;17168;49.164;9.060;2024-03-07T08:14:25;3.50;99.90
30379;DHT22;17168;49.164;9.060;2024-03-07T08:17:00;3.60;99.90
30379;DHT22;17168;49.164;9.060;2024-03-07T08:19:32;3.70;99.90
30379;DHT22;17168;49.164;9.060;2024-03-07T08:22:04;3.80;99.90
30379;DHT22;17168;49.164;9.060;2024-03-07T08:24:36;3.80;99.90
30379;DHT22;17168;49.164;9.060;2024-03-07T08:27:09;4.00;99.90
30379;DHT22;17168;49.164;9.060;2024-03-07T08:29:45;4.10;99.90
30379;DHT22;17168;49.164;9.060;2024-03-07T08:32:18;4.20;99.90
30379;DHT22;17168;49.164;9.060;2024-03-07T08:34:57;4.40;99.90
30379;DHT22;17168;49.164;9.060;2024-03-07T08:37:29;4.50;99.90
30379;DHT22;17168;49.164;9.060;2024-03-07T08:40:01;4.60;99.90
30379;DHT22;17168;49.164;9.060;2024-03-07T08:42:36;4.80;99.90
30379;DHT22;17168;49.164;9.060;2024-03-07T08:45:11;5.00;99.90
30379;DHT22;17168;49.164;9.060;2024-03-07T08:47:50;5.10;99.90
30379;DHT22;17168;49.164;9.060;2024-03-07T08:50:23;5.20;99.90
30379;DHT22;17168;49.164;9.060;2024-03-07T08:52:56;5.30;99.90
30379;DHT22;17168;49.164;9.060;2024-03-07T08:55:28;5.40;99.90
30379;DHT22;17168;49.164;9.060;2024-03-07T08:58:00;5.50;99.90
30379;DHT22;17168;49.164;9.060;2024-03-07T09:00:35;5.60;99.90
30379;DHT22;17168;49.164;9.060;2024-03-07T09:03:10;5.70;99.90
30379;DHT22;17168;49.164;9.060;2024-03-07T09:05:45;5.80;99.90
30379;DHT22;17168;49.164;9.060;2024-03-07T09:08:18;5.90;99.90
30379;DHT22;17168;49.164;9.060;2024-03-07T09:10:50;6.00;99.90
30379;DHT22;17168;49.164;9.060;2024-03-07T09:13:27;6.10;99.90
30379;DHT22;17168;49.164;9.060;2024-03-07T09:16:02;6.20;99.90
30379;DHT22;17168;49.164;9.060;2024-03-07T09:18:37;6.30;99.90
30379;DHT22;17168;49.164;9.060;2024-03-07T09:21:14;6.40;99.90
30379;DHT22;17168;49.164;9.060;2024-03-07T09:23:50;6.50;99.90
30379;DHT22;17168;49.164;9.060;2024-03-07T09:26:23;6.50;99.30
30379;DHT22;17168;49.164;9.060;2024-03-07T09:28:55;6.60;99.00
30379;DHT22;17168;49.164;9.060;2024-03-07T09:31:30;6.70;98.50
30379;DHT22;17168;49.164;9.060;2024-03-07T09:34:03;6.80;97.60
30379;DHT22;17168;49.164;9.060;2024-03-07T09:36:35;6.90;97.40
30379;DHT22;17168;49.164;9.060;2024-03-07T09:39:08;7.00;96.20
30379;DHT22;17168;49.164;9.060;2024-03-07T09:41:40;7.00;95.30
30379;DHT22;17168;49.164;9.060;2024-03-07T09:44:15;7.10;94.70
30379;DHT22;17168;49.164;9.060;2024-03-07T09:46:57;7.20;94.50
30379;DHT22;17168;49.164;9.060;2024-03-07T09:49:33;7.20;93.70
30379;DHT22;17168;49.164;9.060;2024-03-07T09:52:07;7.30;93.50
30379;DHT22;17168;49.164;9.060;2024-03-07T09:54:43;7.30;93.30
30379;DHT22;17168;49.164;9.060;2024-03-07T09:57:16;7.50;93.20
30379;DHT22;17168;49.164;9.060;2024-03-07T09:59:49;7.60;92.70
30379;DHT22;17168;49.164;9.060;2024-03-07T10:02:24;7.60;92.50
30379;DHT22;17168;49.164;9.060;2024-03-07T10:04:57;7.70;92.40
30379;DHT22;17168;49.164;9.060;2024-03-07T10:07:39;7.60;92.30
30379;DHT22;17168;49.164;9.060;2024-03-07T10:10:11;7.60;92.10
30379;DHT22;17168;49.164;9.060;2024-03-07T10:12:44;7.50;91.80
30379;DHT22;17168;49.164;9.060;2024-03-07T10:15:16;7.50;91.60
30379;DHT22;17168;49.164;9.060;2024-03-07T10:17:52;7.50;91.50
30379;DHT22;17168;49.164;9.060;2024-03-07T10:20:24;7.50;91.60
30379;DHT22;17168;49.164;9.060;2024-03-07T10:22:57;7.50;91.40
30379;DHT22;17168;49.164;9.060;2024-03-07T10:25:29;7.60;91.20
30379;DHT22;17168;49.164;9.060;2024-03-07T10:28:03;7.60;90.90
30379;DHT22;17168;49.164;9.060;2024-03-07T10:30:40;7.70;90.60
30379;DHT22;17168;49.164;9.060;2024-03-07T10:33:17;7.70;90.80
30379;DHT22;17168;49.164;9.060;2024-03-07T10:35:50;7.80;90.90
30379;DHT22;17168;49.164;9.060;2024-03-07T10:38:23;7.90;90.80
30379;DHT22;17168;49.164;9.060;2024-03-07T10:40:55;8.00;90.30
30379;DHT22;17168;49.164;9.060;2024-03-07T10:43:29;8.00;89.60
30379;DHT22;17168;49.164;9.060;2024-03-07T10:46:09;8.10;89.60
30379;DHT22;17168;49.164;9.060;2024-03-07T10:48:54;8.20;89.40
30379;DHT22;17168;49.164;9.060;2024-03-07T10:51:33;8.30;89.10
30379;DHT22;17168;49.164;9.060;2024-03-07T10:54:19;8.50;88.60
30379;DHT22;17168;49.164;9.060;2024-03-07T10:57:03;8.70;87.60
30379;DHT22;17168;49.164;9.060;2024-03-07T10:59:38;8.90;85.70
30379;DHT22;17168;49.164;9.060;2024-03-07T11:02:20;9.10;85.70
30379;DHT22;17168;49.164;9.060;2024-03-07T11:05:00;9.20;84.30
30379;DHT22;17168;49.164;9.060;2024-03-07T11:07:32;9.30;83.50
30379;DHT22;17168;49.164;9.060;2024-03-07T11:10:05;9.40;83.50
30379;DHT22;17168;49.164;9.060;2024-03-07T11:12:44;9.60;83.10
30379;DHT22;17168;49.164;9.060;2024-03-07T11:15:18;9.60;82.40
30379;DHT22;17168;49.164;9.060;2024-03-07T11:17:55;9.70;81.50
30379;DHT22;17168;49.164;9.060;2024-03-07T11:20:34;9.80;80.70
30379;DHT22;17168;49.164;9.060;2024-03-07T11:23:25;9.90;81.00
30379;DHT22;17168;49.164;9.060;2024-03-07T11:26:04;10.00;80.70
30379;DHT22;17168;49.164;9.060;2024-03-07T11:28:43;10.10;79.20
30379;DHT22;17168;49.164;9.060;2024-03-07T11:31:25;10.30;78.50
30379;DHT22;17168;49.164;9.060;2024-03-07T11:34:14;10.60;77.60
30379;DHT22;17168;49.164;9.060;2024-03-07T11:36:49;10.90;77.70
30379;DHT22;17168;49.164;9.060;2024-03-07T11:39:39;11.80;77.60
30379;DHT22;17168;49.164;9.060;2024-03-07T11:42:25;13.40;74.90
30379;DHT22;17168;49.164;9.060;2024-03-07T11:45:01;14.90;70.20
30379;DHT22;17168;49.164;9.060;2024-03-07T11:47:37;16.10;76.30
30379;DHT22;17168;49.164;9.060;2024-03-07T11:50:11;16.40;65.60
30379;DHT22;17168;49.164;9.060;2024-03-07T11:52:47;16.90;65.70
30379;DHT22;17168;49.164;9.060;2024-03-07T11:55:20;16.90;63.10
30379;DHT22;17168;49.164;9.060;2024-03-07T11:57:53;16.70;62.80
30379;DHT22;17168;49.164;9.060;2024-03-07T12:00:26;16.70;61.30
30379;DHT22;17168;49.164;9.060;2024-03-07T12:03:02;16.20;60.80
30379;DHT22;17168;49.164;9.060;2024-03-07T12:05:36;16.40;61.10
30379;DHT22;17168;49.164;9.060;2024-03-07T12:08:12;17.50;62.60
30379;DHT22;17168;49.164;9.060;2024-03-07T12:10:45;18.50;58.80
30379;DHT22;17168;49.164;9.060;2024-03-07T12:13:20;18.90;56.20
30379;DHT22;17168;49.164;9.060;2024-03-07T12:15:52;18.50;55.30
30379;DHT22;17168;49.164;9.060;2024-03-07T12:18:28;18.00;57.00
30379;DHT22;17168;49.164;9.060;2024-03-07T12:21:01;17.70;58.00
30379;DHT22;17168;49.164;9.060;2024-03-07T12:23:41;17.40;58.90
30379;DHT22;17168;49.164;9.060;2024-03-07T12:26:20;16.90;59.30
30379;DHT22;17168;49.164;9.060;2024-03-07T12:28:54;16.40;59.60
30379;DHT22;17168;49.164;9.060;2024-03-07T12:31:27;16.00;60.60
30379;DHT22;17168;49.164;9.060;2024-03-07T12:33:59;15.80;60.70
30379;DHT22;17168;49.164;9.060;2024-03-07T12:36:32;15.50;60.40
30379;DHT22;17168;49.164;9.060;2024-03-07T12:39:26;15.40;61.30
30379;DHT22;17168;49.164;9.060;2024-03-07T12:41:58;15.20;61.50
30379;DHT22;17168;49.164;9.060;2024-03-07T12:44:48;15.10;61.50
30379;DHT22;17168;49.164;9.060;2024-03-07T12:47:23;14.90;61.40
30379;DHT22;17168;49.164;9.060;2024-03-07T12:49:57;14.80;61.00
30379;DHT22;17168;49.164;9.060;2024-03-07T12:52:32;14.60;61.10
30379;DHT22;17168;49.164;9.060;2024-03-07T12:55:07;14.40;62.00
30379;DHT22;17168;49.164;9.060;2024-03-07T12:57:39;14.20;62.30
30379;DHT22;17168;49.164;9.060;2024-03-07T13:00:13;14.10;62.90
30379;DHT22;17168;49.164;9.060;2024-03-07T13:02:52;13.90;62.80
30379;DHT22;17168;49.164;9.060;2024-03-07T13:05:24;13.80;63.10
30379;DHT22;17168;49.164;9.060;2024-03-07T13:07:58;13.70;63.60
30379;DHT22;17168;49.164;9.060;2024-03-07T13:10:35;13.60;63.70
30379;DHT22;17168;49.164;9.060;2024-03-07T13:13:09;13.70;63.20
30379;DHT22;17168;49.164;9.060;2024-03-07T13:15:43;13.80;63.20
30379;DHT22;17168;49.164;9.060;2024-03-07T13:18:19;13.80;63.30
30379;DHT22;17168;49.164;9.060;2024-03-07T13:20:51;13.90;63.50
30379;DHT22;17168;49.164;9.060;2024-03-07T13:23:24;13.80;63.10
30379;DHT22;17168;49.164;9.060;2024-03-07T13:26:03;13.60;63.50
30379;DHT22;17168;49.164;9.060;2024-03-07T13:28:41;13.50;62.90
30379;DHT22;17168;49.164;9.060;2024-03-07T13:31:14;13.50;63.40
30379;DHT22;17168;49.164;9.060;2024-03-07T13:33:49;13.50;63.50
30379;DHT22;17168;49.164;9.060;2024-03-07T13:36:24;13.30;63.40
30379;DHT22;17168;49.164;9.060;2024-03-07T13:38:57;13.30;64.20
30379;DHT22;17168;49.164;9.060;2024-03-07T13:41:32;13.30;64.30
30379;DHT22;17168;49.164;9.060;2024-03-07T13:44:05;13.20;64.60
30379;DHT22;17168;49.164;9.060;2024-03-07T13:46:37;13.10;64.50
30379;DHT22;17168;49.164;9.060;2024-03-07T13:49:09;13.00;65.00
30379;DHT22;17168;49.164;9.060;2024-03-07T13:51:49;13.00;65.30
30379;DHT22;17168;49.164;9.060;2024-03-07T13:54:25;12.90;65.40
30379;DHT22;17168;49.164;9.060;2024-03-07T13:57:24;12.80;65.70
30379;DHT22;17168;49.164;9.060;2024-03-07T14:00:22;12.70;65.80
30379;DHT22;17168;49.164;9.060;2024-03-07T14:06:10;12.40;66.20
30379;DHT22;17168;49.164;9.060;2024-03-07T14:08:56;12.30;66.20
30379;DHT22;17168;49.164;9.060;2024-03-07T14:12:09;12.20;66.00
30379;DHT22;17168;49.164;9.060;2024-03-07T14:18:26;12.10;66.30
30379;DHT22;17168;49.164;9.060;2024-03-07T14:21:22;12.10;66.20
30379;DHT22;17168;49.164;9.060;2024-03-07T14:24:30;12.10;66.30
30379;DHT22;17168;49.164;9.060;2024-03-07T14:27:18;12.20;66.40
30379;DHT22;17168;49.164;9.060;2024-03-07T14:32:59;12.10;66.30
30379;DHT22;17168;49.164;9.060;2024-03-07T14:35:59;12.10;66.30
30379;DHT22;17168;49.164;9.060;2024-03-07T14:38:44;12.00;66.30
30379;DHT22;17168;49.164;9.060;2024-03-07T14:41:24;12.00;66.10
30379;DHT22;17168;49.164;9.060;2024-03-07T14:44:11;12.10;66.00
30379;DHT22;17168;49.164;9.060;2024-03-07T14:47:00;12.10;66.00
30379;DHT22;17168;49.164;9.060;2024-03-07T14:49:38;12.20;66.10
30379;DHT22;17168;49.164;9.060;2024-03-07T14:52:14;12.30;66.20
30379;DHT22;17168;49.164;9.060;2024-03-07T14:54:47;12.30;65.90
30379;DHT22;17168;49.164;9.060;2024-03-07T14:57:19;12.20;65.30
30379;DHT22;17168;49.164;9.060;2024-03-07T14:59:55;12.20;65.80
30379;DHT22;17168;49.164;9.060;2024-03-07T15:02:29;12.10;66.10
30379;DHT22;17168;49.164;9.060;2024-03-07T15:05:01;12.00;66.40
30379;DHT22;17168;49.164;9.060;2024-03-07T15:07:40;11.90;66.50
30379;DHT22;17168;49.164;9.060;2024-03-07T15:10:16;11.80;66.70
30379;DHT22;17168;49.164;9.060;2024-03-07T15:12:50;11.70;66.60
30379;DHT22;17168;49.164;9.060;2024-03-07T15:15:22;11.70;66.40
30379;DHT22;17168;49.164;9.060;2024-03-07T15:18:03;11.70;66.50
30379;DHT22;17168;49.164;9.060;2024-03-07T15:20:35;11.60;66.60
30379;DHT22;17168;49.164;9.060;2024-03-07T15:23:10;11.50;66.90
30379;DHT22;17168;49.164;9.060;2024-03-07T15:25:45;11.40;67.10
30379;DHT22;17168;49.164;9.060;2024-03-07T15:28:17;11.30;67.60
30379;DHT22;17168;49.164;9.060;2024-03-07T15:30:52;11.30;67.50
30379;DHT22;17168;49.164;9.060;2024-03-07T15:33:25;11.20;67.40
30379;DHT22;17168;49.164;9.060;2024-03-07T15:35:57;11.20;67.70
30379;DHT22;17168;49.164;9.060;2024-03-07T15:38:32;11.20;67.70
30379;DHT22;17168;49.164;9.060;2024-03-07T15:41:08;11.20;67.70
30379;DHT22;17168;49.164;9.060;2024-03-07T15:43:42;11.30;67.60
30379;DHT22;17168;49.164;9.060;2024-03-07T15:46:15;11.30;67.40
30379;DHT22;17168;49.164;9.060;2024-03-07T15:48:50;11.30;67.30
30379;DHT22;17168;49.164;9.060;2024-03-07T15:51:23;11.30;67.10
30379;DHT22;17168;49.164;9.060;2024-03-07T15:53:57;11.30;67.10
30379;DHT22;17168;49.164;9.060;2024-03-07T15:56:30;11.30;67.30
30379;DHT22;17168;49.164;9.060;2024-03-07T15:59:02;11.20;67.50
30379;DHT22;17168;49.164;9.060;2024-03-07T16:01:34;11.20;67.40
30379;DHT22;17168;49.164;9.060;2024-03-07T16:04:06;11.10;67.20
30379;DHT22;17168;49.164;9.060;2024-03-07T16:06:42;11.10;67.30
30379;DHT22;17168;49.164;9.060;2024-03-07T16:09:17;11.00;67.30
30379;DHT22;17168;49.164;9.060;2024-03-07T16:11:55;11.00;67.40
30379;DHT22;17168;49.164;9.060;2024-03-07T16:14:27;10.90;67.50
30379;DHT22;17168;49.164;9.060;2024-03-07T16:17:00;10.90;67.30
30379;DHT22;17168;49.164;9.060;2024-03-07T16:19:33;10.80;67.30
30379;DHT22;17168;49.164;9.060;2024-03-07T16:22:05;10.80;67.60
30379;DHT22;17168;49.164;9.060;2024-03-07T16:24:43;10.70;67.90
30379;DHT22;17168;49.164;9.060;2024-03-07T16:27:15;10.60;68.00
30379;DHT22;17168;49.164;9.060;2024-03-07T16:29:48;10.60;68.30
30379;DHT22;17168;49.164;9.060;2024-03-07T16:32:21;10.50;68.20
30379;DHT22;17168;49.164;9.060;2024-03-07T16:34:53;10.50;68.20
30379;DHT22;17168;49.164;9.060;2024-03-07T16:37:31;10.40;68.50
30379;DHT22;17168;49.164;9.060;2024-03-07T16:40:07;10.30;69.20